Time,TemperatureF,DewpointF,PressureIn,WindDirection,WindDirectionDegrees,WindSpeedMPH,WindSpeedGustMPH,Humidity,HourlyPrecipIn,Conditions,Clouds,dailyrainin,SoftwareType,DateUTC
2013-05-04 00:04:00,63.1,28.5,29.72,SSW,205,4.6,4.6,27,0.00,CLR,,0.00,WeatherDisplay:10.37,2013-05-04 07:04:00,
2013-05-04 00:09:00,62.6,28.1,29.72,SSW,205,3.5,3.5,27,0.00,CLR,,0.00,WeatherDisplay:10.37,2013-05-04 07:09:00,
2013-05-04 00:14:00,62.2,27.8,29.72,SSW,205,3.5,3.5,27,0.00,CLR,,0.00,WeatherDisplay:10.37,2013-05-04 07:14:00,
2013-05-04 00:19:00,61.7,28.2,29.72,SSW,205,4.6,4.6,28,0.00,CLR,,0.00,WeatherDisplay:10.37,2013-05-04 07:19:00,
2013-05-04 00:24:00,61.8,28.3,29.71,SSW,205,4.6,4.6,28,0.00,CLR,,0.00,WeatherDisplay:10.37,2013-05-04 07:24:00,
2013-05-04 00:29:00,62.4,28.8,29.71,SSW,205,5.8,5.8,28,0.00,CLR,,0.00,WeatherDisplay:10.37,2013-05-04 07:29:00,
2013-05-04 00:34:00,63.0,28.5,29.71,SSW,205,6.9,6.9,27,0.00,CLR,,0.00,WeatherDisplay:10.37,2013-05-04 07:34:00,
2013-05-04 00:39:00,62.9,29.3,29.71,SSW,205,6.0,6.0,28,0.00,CLR,,0.00,WeatherDisplay:10.37,2013-05-04 07:39:00,
2013-05-04 00:44:00,62.7,30.0,29.71,SSW,205,5.0,5.0,29,0.00,CLR,,0.00,WeatherDisplay:10.37,2013-05-04 07:44:00,
2013-05-04 00:49:00,62.3,29.6,29.71,SSW,205,6.9,6.9,29,0.00,CLR,,0.00,WeatherDisplay:10.37,2013-05-04 07:49:00,
2013-05-04 00:54:00,62.2,29.5,29.70,SSW,205,8.0,8.0,29,0.00,CLR,,0.00,WeatherDisplay:10.37,2013-05-04 07:54:00,
2013-05-04 00:59:00,62.1,29.4,29.70,SSW,205,6.9,6.9,29,0.00,CLR,,0.00,WeatherDisplay:10.37,2013-05-04 07:59:00,
2013-05-04 01:04:00,62.0,29.3,29.70,SSW,205,5.8,5.8,29,0.00,CLR,,0.00,WeatherDisplay:10.37,2013-05-04 08:04:00,
2013-05-04 01:09:00,61.6,29.0,29.70,SSW,205,4.6,4.6,29,0.00,CLR,,0.00,WeatherDisplay:10.37,2013-05-04 08:09:00,
2013-05-04 01:14:00,61.2,29.5,29.70,SSW,205,3.5,3.5,30,0.00,CLR,,0.00,WeatherDisplay:10.37,2013-05-04 08:14:00,
2013-05-04 01:19:00,60.8,29.1,29.70,SSW,205,4.0,4.0,30,0.00,CLR,,0.00,WeatherDisplay:10.37,2013-05-04 08:19:00,
2013-05-04 01:24:00,60.5,29.7,29.70,SSW,205,3.5,3.5,31,0.00,CLR,,0.00,WeatherDisplay:10.37,2013-05-04 08:24:00,
2013-05-04 01:29:00,59.9,28.4,29.70,SSW,205,5.0,5.0,30,0.00,CLR,,0.00,WeatherDisplay:10.37,2013-05-04 08:29:00,
2013-05-04 01:34:00,59.5,28.0,29.70,SSW,205,4.6,4.6,30,0.00,CLR,,0.00,WeatherDisplay:10.37,2013-05-04 08:34:00,
2013-05-04 01:39:00,60.4,28.8,29.70,SSW,205,6.9,6.9,30,0.00,CLR,,0.00,WeatherDisplay:10.37,2013-05-04 08:39:00,
2013-05-04 01:44:00,61.7,29.1,29.69,SSW,205,11.5,11.5,29,0.00,CLR,,0.00,WeatherDisplay:10.37,2013-05-04 08:44:00,
2013-05-04 01:49:00,62.9,30.1,29.68,SSW,207,10.4,10.4,29,0.00,CLR,,0.00,WeatherDisplay:10.37,2013-05-04 08:49:00,
2013-05-04 01:54:00,63.1,29.4,29.68,SSW,207,10.4,10.4,28,0.00,CLR,,0.00,WeatherDisplay:10.37,2013-05-04 08:54:00,
2013-05-04 01:59:00,62.9,30.1,29.68,SSW,207,6.9,6.9,29,0.00,CLR,,0.00,WeatherDisplay:10.37,2013-05-04 08:59:00,
2013-05-04 02:04:00,63.2,30.4,29.68,SSW,207,11.5,11.5,29,0.00,CLR,,0.00,WeatherDisplay:10.37,2013-05-04 09:04:00,
2013-05-04 02:09:00,63.7,30.0,29.67,SSW,207,9.2,9.2,28,0.00,CLR,,0.00,WeatherDisplay:10.37,2013-05-04 09:09:00,
2013-05-04 02:14:00,63.6,29.9,29.67,SSW,207,10.0,10.0,28,0.00,CLR,,0.00,WeatherDisplay:10.37,2013-05-04 09:14:00,
2013-05-04 02:19:00,63.4,29.7,29.67,SSW,207,9.2,9.2,28,0.00,CLR,,0.00,WeatherDisplay:10.37,2013-05-04 09:19:00,
2013-05-04 02:24:00,63.6,29.9,29.67,SSW,207,8.1,8.1,28,0.00,CLR,,0.00,WeatherDisplay:10.37,2013-05-04 09:24:00,
2013-05-04 02:29:00,63.6,29.9,29.67,SSW,207,8.1,8.1,28,0.00,CLR,,0.00,WeatherDisplay:10.37,2013-05-04 09:29:00,
2013-05-04 02:34:00,63.4,29.7,29.67,SSW,207,5.0,5.0,28,0.00,CLR,,0.00,WeatherDisplay:10.37,2013-05-04 09:34:00,
2013-05-04 02:39:00,63.3,29.6,29.67,SSW,207,4.6,4.9,28,0.00,CLR,,0.00,WeatherDisplay:10.37,2013-05-04 09:39:00,
2013-05-04 02:44:00,64.0,30.2,29.67,SSW,207,9.2,9.2,28,0.00,CLR,,0.00,WeatherDisplay:10.37,2013-05-04 09:44:00,
2013-05-04 02:49:00,64.5,29.7,29.67,SSW,207,9.2,9.2,27,0.00,CLR,,0.00,WeatherDisplay:10.37,2013-05-04 09:49:00,
2013-05-04 02:54:00,64.8,30.9,29.66,SSW,207,10.4,10.4,28,0.00,CLR,,0.00,WeatherDisplay:10.37,2013-05-04 09:54:00,
2013-05-04 02:59:00,64.9,30.1,29.66,SSW,207,6.9,6.9,27,0.00,CLR,,0.00,WeatherDisplay:10.37,2013-05-04 09:59:00,
2013-05-04 03:04:00,65.0,30.2,29.65,SSW,207,6.9,6.9,27,0.00,CLR,,0.00,WeatherDisplay:10.37,2013-05-04 10:04:00,
2013-05-04 03:09:00,65.0,31.1,29.65,SSW,207,5.0,5.0,28,0.00,CLR,,0.00,WeatherDisplay:10.37,2013-05-04 10:09:00,
2013-05-04 03:14:00,64.9,31.0,29.65,SSW,207,4.0,4.0,28,0.00,CLR,,0.00,WeatherDisplay:10.37,2013-05-04 10:14:00,
2013-05-04 03:19:00,65.0,31.1,29.65,SSW,207,6.9,6.9,28,0.00,CLR,,0.00,WeatherDisplay:10.37,2013-05-04 10:19:00,
2013-05-04 03:24:00,64.8,30.9,29.65,SSW,207,6.0,6.0,28,0.00,CLR,,0.00,WeatherDisplay:10.37,2013-05-04 10:24:00,
2013-05-04 03:29:00,64.3,30.5,29.66,SSW,207,5.0,5.0,28,0.00,CLR,,0.00,WeatherDisplay:10.37,2013-05-04 10:29:00,
2013-05-04 03:34:00,63.5,30.6,29.65,SSW,207,5.8,5.8,29,0.00,CLR,,0.00,WeatherDisplay:10.37,2013-05-04 10:34:00,
2013-05-04 03:39:00,63.3,30.5,29.65,SSW,207,5.0,5.0,29,0.00,CLR,,0.00,WeatherDisplay:10.37,2013-05-04 10:39:00,
2013-05-04 03:44:00,63.8,30.9,29.65,SSW,207,5.8,5.8,29,0.00,CLR,,0.00,WeatherDisplay:10.37,2013-05-04 10:44:00,
2013-05-04 03:49:00,64.7,31.7,29.65,SSW,207,5.0,5.0,29,0.00,CLR,,0.00,WeatherDisplay:10.37,2013-05-04 10:49:00,
2013-05-04 03:54:00,65.2,31.2,29.65,SSW,207,6.9,6.9,28,0.00,CLR,,0.00,WeatherDisplay:10.37,2013-05-04 10:54:00,
2013-05-04 03:59:00,65.4,31.4,29.65,SSW,207,4.6,4.6,28,0.00,CLR,,0.00,WeatherDisplay:10.37,2013-05-04 10:59:00,
2013-05-04 04:04:00,65.4,32.3,29.64,SSW,207,3.5,3.5,29,0.00,CLR,,0.00,WeatherDisplay:10.37,2013-05-04 11:04:00,
2013-05-04 04:09:00,65.1,32.0,29.64,SSW,207,3.5,3.5,29,0.00,CLR,,0.00,WeatherDisplay:10.37,2013-05-04 11:09:00,
2013-05-04 04:14:00,64.3,31.3,29.64,SSW,207,3.5,3.5,29,0.00,CLR,,0.00,WeatherDisplay:10.37,2013-05-04 11:14:00,
2013-05-04 04:19:00,63.3,30.5,29.64,SSW,207,3.5,3.5,29,0.00,CLR,,0.00,WeatherDisplay:10.37,2013-05-04 11:19:00,
2013-05-04 04:24:00,62.4,30.5,29.64,SSW,207,3.5,3.5,30,0.00,CLR,,0.00,WeatherDisplay:10.37,2013-05-04 11:24:00,
2013-05-04 04:29:00,61.6,30.6,29.64,SSW,207,3.5,3.5,31,0.00,CLR,,0.00,WeatherDisplay:10.37,2013-05-04 11:29:00,
2013-05-04 04:34:00,60.9,30.8,29.65,SSW,207,3.5,3.5,32,0.00,CLR,,0.00,WeatherDisplay:10.37,2013-05-04 11:34:00,
2013-05-04 04:39:00,60.3,30.3,29.65,SSW,207,1.1,1.1,32,0.00,CLR,,0.00,WeatherDisplay:10.37,2013-05-04 11:39:00,
2013-05-04 04:44:00,59.7,29.8,29.64,SSW,207,0.0,0.0,32,0.00,CLR,,0.00,WeatherDisplay:10.37,2013-05-04 11:44:00,
2013-05-04 04:49:00,59.2,30.1,29.65,SSW,207,0.0,0.0,33,0.00,CLR,,0.00,WeatherDisplay:10.37,2013-05-04 11:49:00,
2013-05-04 04:54:00,59.0,29.9,29.65,SSW,207,3.5,3.5,33,0.00,CLR,,0.00,WeatherDisplay:10.37,2013-05-04 11:54:00,
2013-05-04 04:59:00,59.0,29.9,29.65,SSW,207,3.5,3.5,33,0.00,CLR,,0.00,WeatherDisplay:10.37,2013-05-04 11:59:00,
2013-05-04 05:05:00,58.5,29.5,29.65,SSW,207,0.0,0.0,33,0.00,CLR,,0.00,WeatherDisplay:10.37,2013-05-04 12:05:00,
2013-05-04 05:10:00,58.0,29.8,29.65,SSW,207,0.0,0.0,34,0.00,CLR,,0.00,WeatherDisplay:10.37,2013-05-04 12:10:00,
2013-05-04 05:15:00,57.7,30.2,29.65,SSW,207,0.0,0.0,35,0.00,CLR,,0.00,WeatherDisplay:10.37,2013-05-04 12:15:00,
2013-05-04 05:20:00,57.3,29.1,29.66,SSW,207,0.0,0.0,34,0.00,CLR,,0.00,WeatherDisplay:10.37,2013-05-04 12:20:00,
2013-05-04 05:25:00,56.9,28.1,29.66,SSW,207,0.0,0.0,33,0.00,CLR,,0.00,WeatherDisplay:10.37,2013-05-04 12:25:00,
2013-05-04 05:30:00,56.6,27.8,29.66,SSW,207,0.0,0.0,33,0.00,CLR,,0.00,WeatherDisplay:10.37,2013-05-04 12:30:00,
2013-05-04 05:35:00,56.4,28.3,29.66,SSW,207,0.0,0.0,34,0.00,CLR,,0.00,WeatherDisplay:10.37,2013-05-04 12:35:00,
2013-05-04 05:40:00,56.2,28.2,29.66,SSW,207,0.0,0.0,34,0.00,CLR,,0.00,WeatherDisplay:10.37,2013-05-04 12:40:00,
2013-05-04 05:45:00,56.1,28.1,29.66,SSW,207,0.0,0.0,34,0.00,CLR,,0.00,WeatherDisplay:10.37,2013-05-04 12:45:00,
2013-05-04 05:50:00,55.9,27.9,29.65,SSW,207,0.0,0.0,34,0.00,CLR,,0.00,WeatherDisplay:10.37,2013-05-04 12:50:00,
2013-05-04 05:55:00,55.7,27.7,29.66,SSW,207,0.0,0.0,34,0.00,CLR,,0.00,WeatherDisplay:10.37,2013-05-04 12:55:00,
2013-05-04 06:00:00,55.7,28.4,29.65,SSW,207,2.3,0.0,35,0.00,CLR,,0.00,WeatherDisplay:10.37,2013-05-04 13:00:00,
2013-05-04 06:05:00,55.6,28.4,29.67,SSW,207,3.5,3.5,35,0.00,CLR,,0.00,WeatherDisplay:10.37,2013-05-04 13:05:00,
2013-05-04 06:10:00,55.7,29.1,29.67,SSW,207,3.5,3.5,36,0.00,CLR,,0.00,WeatherDisplay:10.37,2013-05-04 13:10:00,
2013-05-04 06:15:00,55.7,29.8,29.67,SSW,207,3.5,3.5,37,0.00,CLR,,0.00,WeatherDisplay:10.37,2013-05-04 13:15:00,
2013-05-04 06:20:00,56.2,30.2,29.67,SSW,207,4.6,4.6,37,0.00,CLR,,0.00,WeatherDisplay:10.37,2013-05-04 13:20:00,
2013-05-04 06:25:00,57.4,32.0,29.67,SSW,207,4.0,4.0,38,0.00,CLR,,0.00,WeatherDisplay:10.37,2013-05-04 13:25:00,
2013-05-04 06:30:00,59.4,33.1,29.66,SSW,207,6.0,6.0,37,0.00,CLR,,0.00,WeatherDisplay:10.37,2013-05-04 13:30:00,
2013-05-04 06:35:00,61.4,34.2,29.66,SSW,207,5.8,5.8,36,0.00,CLR,,0.00,WeatherDisplay:10.37,2013-05-04 13:35:00,
2013-05-04 06:40:00,62.5,34.5,29.65,SSW,207,5.8,5.8,35,0.00,CLR,,0.00,WeatherDisplay:10.37,2013-05-04 13:40:00,
2013-05-04 06:45:00,63.7,35.5,29.65,SSW,207,6.9,6.9,35,0.00,CLR,,0.00,WeatherDisplay:10.37,2013-05-04 13:45:00,
2013-05-04 06:50:00,64.4,35.4,29.65,SSW,207,5.8,5.8,34,0.00,CLR,,0.00,WeatherDisplay:10.37,2013-05-04 13:50:00,
2013-05-04 06:55:00,64.7,34.9,29.65,SSW,207,6.0,6.0,33,0.00,CLR,,0.00,WeatherDisplay:10.37,2013-05-04 13:55:00,
2013-05-04 07:00:00,64.9,35.1,29.65,SSW,207,3.5,3.5,33,0.00,CLR,,0.00,WeatherDisplay:10.37,2013-05-04 14:00:00,
2013-05-04 07:05:00,65.0,35.2,29.66,SSW,207,0.0,0.0,33,0.00,CLR,,0.00,WeatherDisplay:10.37,2013-05-04 14:05:00,
2013-05-04 07:10:00,64.8,35.0,29.66,SSW,207,0.0,0.0,33,0.00,CLR,,0.00,WeatherDisplay:10.37,2013-05-04 14:10:00,
2013-05-04 07:15:00,64.8,35.0,29.66,SSW,207,3.5,3.5,33,0.00,CLR,,0.00,WeatherDisplay:10.37,2013-05-04 14:15:00,
2013-05-04 07:20:00,65.2,36.1,29.66,SSW,207,2.0,2.0,34,0.00,CLR,,0.00,WeatherDisplay:10.37,2013-05-04 14:20:00,
2013-05-04 07:25:00,65.8,35.9,29.65,SSW,207,4.6,4.6,33,0.00,CLR,,0.00,WeatherDisplay:10.37,2013-05-04 14:25:00,
2013-05-04 07:30:00,66.5,35.7,29.65,SSW,207,4.6,4.6,32,0.00,CLR,,0.00,WeatherDisplay:10.37,2013-05-04 14:30:00,
2013-05-04 07:35:00,67.2,36.3,29.65,SSW,207,4.6,4.6,32,0.00,CLR,,0.00,WeatherDisplay:10.37,2013-05-04 14:35:00,
2013-05-04 07:40:00,67.8,36.0,29.65,SSW,207,4.6,4.6,31,0.00,CLR,,0.00,WeatherDisplay:10.37,2013-05-04 14:40:00,
2013-05-04 07:45:00,68.5,36.7,29.65,SSW,207,5.0,5.0,31,0.00,CLR,,0.00,WeatherDisplay:10.37,2013-05-04 14:45:00,
2013-05-04 07:50:00,69.1,36.3,29.64,SSW,207,6.0,6.0,30,0.00,CLR,,0.00,WeatherDisplay:10.37,2013-05-04 14:50:00,
2013-05-04 07:55:00,69.8,36.9,29.64,SSW,207,3.5,3.5,30,0.00,CLR,,0.00,WeatherDisplay:10.37,2013-05-04 14:55:00,
2013-05-04 08:00:00,70.5,36.7,29.64,SSW,207,4.6,4.6,29,0.00,CLR,,0.00,WeatherDisplay:10.37,2013-05-04 15:00:00,
2013-05-04 08:05:00,71.3,36.5,29.65,SSW,207,6.9,6.9,28,0.00,CLR,,0.00,WeatherDisplay:10.37,2013-05-04 15:05:00,
2013-05-04 08:10:00,72.2,36.3,29.64,WSW,248,11.5,11.5,27,0.00,CLR,,0.00,WeatherDisplay:10.37,2013-05-04 15:10:00,
2013-05-04 08:15:00,73.1,37.1,29.64,SW,232,12.0,12.0,27,0.00,CLR,,0.00,WeatherDisplay:10.37,2013-05-04 15:15:00,
2013-05-04 08:20:00,73.7,36.7,29.64,WSW,252,11.5,11.5,26,0.00,CLR,,0.00,WeatherDisplay:10.37,2013-05-04 15:20:00,
2013-05-04 08:25:00,74.3,37.2,29.64,West,259,12.7,12.7,26,0.00,CLR,,0.00,WeatherDisplay:10.37,2013-05-04 15:25:00,
2013-05-04 08:30:00,74.8,36.6,29.63,West,261,14.0,14.0,25,0.00,CLR,,0.00,WeatherDisplay:10.37,2013-05-04 15:30:00,
2013-05-04 08:35:00,75.4,37.1,29.63,SW,217,10.4,10.4,25,0.00,CLR,,0.00,WeatherDisplay:10.37,2013-05-04 15:35:00,
2013-05-04 08:40:00,76.2,36.8,29.63,SW,229,11.0,11.0,24,0.00,CLR,,0.00,WeatherDisplay:10.37,2013-05-04 15:40:00,
2013-05-04 08:45:00,76.6,37.1,29.62,SW,225,11.5,11.5,24,0.00,CLR,,0.00,WeatherDisplay:10.37,2013-05-04 15:45:00,
2013-05-04 08:50:00,77.0,36.3,29.62,West,261,12.7,12.7,23,0.00,CLR,,0.00,WeatherDisplay:10.37,2013-05-04 15:50:00,
2013-05-04 08:55:00,77.5,36.8,29.62,SW,221,11.5,11.5,23,0.00,CLR,,0.00,WeatherDisplay:10.37,2013-05-04 15:55:00,
2013-05-04 09:00:00,78.1,36.1,29.62,SW,218,11.5,11.5,22,0.00,CLR,,0.00,WeatherDisplay:10.37,2013-05-04 16:00:00,
2013-05-04 09:05:00,78.5,36.5,29.62,SW,224,9.2,9.2,22,0.00,CLR,,0.00,WeatherDisplay:10.37,2013-05-04 16:05:00,
2013-05-04 09:10:00,78.7,36.6,29.62,SSW,202,11.5,11.5,22,0.00,CLR,,0.00,WeatherDisplay:10.37,2013-05-04 16:10:00,
2013-05-04 09:15:00,78.8,35.5,29.62,SSW,196,10.4,10.4,21,0.00,CLR,,0.00,WeatherDisplay:10.37,2013-05-04 16:15:00,
2013-05-04 09:20:00,79.0,35.7,29.62,SSW,199,11.5,11.5,21,0.00,CLR,,0.00,WeatherDisplay:10.37,2013-05-04 16:20:00,
2013-05-04 09:25:00,79.1,35.8,29.62,SSW,211,11.5,11.5,21,0.00,CLR,,0.00,WeatherDisplay:10.37,2013-05-04 16:25:00,
2013-05-04 09:30:00,79.7,36.3,29.61,SW,229,11.5,11.5,21,0.00,CLR,,0.00,WeatherDisplay:10.37,2013-05-04 16:30:00,
2013-05-04 09:35:00,80.0,35.3,29.61,SSW,195,11.0,11.0,20,0.00,CLR,,0.00,WeatherDisplay:10.37,2013-05-04 16:35:00,
2013-05-04 09:40:00,79.8,35.1,29.61,SSW,204,15.0,15.0,20,0.00,CLR,,0.00,WeatherDisplay:10.37,2013-05-04 16:40:00,
2013-05-04 09:45:00,80.0,35.3,29.61,SW,235,13.0,13.0,20,0.00,CLR,,0.00,WeatherDisplay:10.37,2013-05-04 16:45:00,
2013-05-04 09:50:00,80.8,34.7,29.61,SW,232,16.1,16.1,19,0.00,CLR,,0.00,WeatherDisplay:10.37,2013-05-04 16:50:00,
2013-05-04 09:56:00,81.0,34.8,29.61,SW,230,12.7,12.7,19,0.00,CLR,,0.00,WeatherDisplay:10.37,2013-05-04 16:56:00,
2013-05-04 10:01:00,81.1,33.6,29.61,SSW,206,11.5,11.5,18,0.00,CLR,,0.00,WeatherDisplay:10.37,2013-05-04 17:01:00,
2013-05-04 10:06:00,81.5,33.9,29.61,WSW,248,16.1,16.1,18,0.00,CLR,,0.00,WeatherDisplay:10.37,2013-05-04 17:06:00,
2013-05-04 10:11:00,81.6,34.0,29.61,WSW,238,11.5,11.5,18,0.00,CLR,,0.00,WeatherDisplay:10.37,2013-05-04 17:11:00,
2013-05-04 10:16:00,81.6,34.0,29.60,SSW,213,17.3,17.3,18,0.00,CLR,,0.00,WeatherDisplay:10.37,2013-05-04 17:16:00,
2013-05-04 10:21:00,81.2,33.6,29.61,South,187,18.4,18.4,18,0.00,CLR,,0.00,WeatherDisplay:10.37,2013-05-04 17:21:00,
2013-05-04 10:26:00,81.4,32.4,29.61,SW,236,16.1,16.1,17,0.00,CLR,,0.00,WeatherDisplay:10.37,2013-05-04 17:26:00,
2013-05-04 10:31:00,81.8,31.2,29.60,SSW,209,19.0,19.0,16,0.00,CLR,,0.00,WeatherDisplay:10.37,2013-05-04 17:31:00,
2013-05-04 10:36:00,81.8,31.2,29.60,SW,221,19.6,19.6,16,0.00,CLR,,0.00,WeatherDisplay:10.37,2013-05-04 17:36:00,
2013-05-04 10:41:00,81.5,29.4,29.60,SW,221,19.6,19.6,15,0.00,CLR,,0.00,WeatherDisplay:10.37,2013-05-04 17:41:00,
2013-05-04 10:46:00,81.5,31.0,29.60,WSW,238,15.0,15.0,16,0.00,CLR,,0.00,WeatherDisplay:10.37,2013-05-04 17:46:00,
2013-05-04 10:51:00,82.0,32.9,29.60,SW,222,19.6,19.6,17,0.00,CLR,,0.00,WeatherDisplay:10.37,2013-05-04 17:51:00,
2013-05-04 10:56:00,82.0,29.8,29.60,SSW,199,25.3,25.3,15,0.00,CLR,,0.00,WeatherDisplay:10.37,2013-05-04 17:56:00,
2013-05-04 11:01:00,81.8,29.6,29.61,SW,227,24.2,24.2,15,0.00,CLR,,0.00,WeatherDisplay:10.37,2013-05-04 18:01:00,
2013-05-04 11:06:00,82.2,29.9,29.61,SW,222,23.0,23.0,15,0.00,CLR,,0.00,WeatherDisplay:10.37,2013-05-04 18:06:00,
2013-05-04 11:11:00,81.9,29.7,29.61,SW,223,21.9,21.9,15,0.00,CLR,,0.00,WeatherDisplay:10.37,2013-05-04 18:11:00,
2013-05-04 11:16:00,82.1,29.8,29.61,SW,215,20.7,20.7,15,0.00,CLR,,0.00,WeatherDisplay:10.37,2013-05-04 18:16:00,
2013-05-04 11:21:00,82.6,30.2,29.60,SSW,200,23.0,23.0,15,0.00,CLR,,0.00,WeatherDisplay:10.37,2013-05-04 18:21:00,
2013-05-04 11:27:00,82.0,31.4,29.60,SW,214,26.5,26.5,16,0.00,CLR,,0.00,WeatherDisplay:10.37,2013-05-04 18:27:00,
2013-05-04 11:32:00,81.9,29.7,29.60,SW,214,25.3,25.3,15,0.00,CLR,,0.00,WeatherDisplay:10.37,2013-05-04 18:32:00,
2013-05-04 11:37:00,82.2,29.9,29.60,SW,223,25.3,25.3,15,0.00,CLR,,0.00,WeatherDisplay:10.37,2013-05-04 18:37:00,
2013-05-04 11:42:00,82.4,30.1,29.59,SSW,198,26.5,26.5,15,0.00,CLR,,0.00,WeatherDisplay:10.37,2013-05-04 18:42:00,
2013-05-04 11:47:00,82.5,30.2,29.59,SSW,210,26.5,26.5,15,0.00,CLR,,0.00,WeatherDisplay:10.37,2013-05-04 18:47:00,
2013-05-04 11:52:00,82.2,29.9,29.60,SSW,199,26.5,26.5,15,0.00,CLR,,0.00,WeatherDisplay:10.37,2013-05-04 18:52:00,
2013-05-04 11:57:00,82.0,29.8,29.59,SSW,209,21.9,21.9,15,0.00,CLR,,0.00,WeatherDisplay:10.37,2013-05-04 18:57:00,
2013-05-04 12:02:00,82.4,30.1,29.59,SSW,201,25.3,25.3,15,0.00,CLR,,0.00,WeatherDisplay:10.37,2013-05-04 19:02:00,
2013-05-04 12:07:00,82.2,29.9,29.59,SW,225,26.5,26.5,15,0.00,CLR,,0.00,WeatherDisplay:10.37,2013-05-04 19:07:00,
2013-05-04 12:12:00,82.6,30.2,29.59,SW,214,26.5,26.5,15,0.00,CLR,,0.00,WeatherDisplay:10.37,2013-05-04 19:12:00,
2013-05-04 12:17:00,82.7,30.3,29.59,SSW,211,26.5,26.5,15,0.00,CLR,,0.00,WeatherDisplay:10.37,2013-05-04 19:17:00,
2013-05-04 12:22:00,82.3,30.0,29.58,SSW,207,26.5,26.5,15,0.00,CLR,,0.00,WeatherDisplay:10.37,2013-05-04 19:22:00,
2013-05-04 12:27:00,82.6,30.2,29.58,SW,233,28.8,28.8,15,0.00,CLR,,0.00,WeatherDisplay:10.37,2013-05-04 19:27:00,
2013-05-04 12:32:00,83.0,30.6,29.58,WSW,246,24.2,24.2,15,0.00,CLR,,0.00,WeatherDisplay:10.37,2013-05-04 19:32:00,
2013-05-04 12:37:00,82.8,30.4,29.58,South,186,26.5,26.5,15,0.00,CLR,,0.00,WeatherDisplay:10.37,2013-05-04 19:37:00,
2013-05-04 12:42:00,82.0,31.4,29.58,SW,229,26.5,26.5,16,0.00,CLR,,0.00,WeatherDisplay:10.37,2013-05-04 19:42:00,
2013-05-04 12:47:00,82.0,31.4,29.58,SW,222,26.5,26.5,16,0.00,CLR,,0.00,WeatherDisplay:10.37,2013-05-04 19:47:00,
2013-05-04 12:52:00,82.3,31.6,29.58,SW,233,24.2,24.2,16,0.00,CLR,,0.00,WeatherDisplay:10.37,2013-05-04 19:52:00,
2013-05-04 12:57:00,82.9,32.1,29.57,SSW,204,27.6,27.6,16,0.00,CLR,,0.00,WeatherDisplay:10.37,2013-05-04 19:57:00,
2013-05-04 13:02:00,82.5,31.8,29.57,SW,225,27.6,27.6,16,0.00,CLR,,0.00,WeatherDisplay:10.37,2013-05-04 20:02:00,
2013-05-04 13:07:00,82.0,31.4,29.57,WSW,245,31.1,31.1,16,0.00,CLR,,0.00,WeatherDisplay:10.37,2013-05-04 20:07:00,
2013-05-04 13:12:00,82.1,32.9,29.57,SW,215,27.0,27.0,17,0.00,CLR,,0.00,WeatherDisplay:10.37,2013-05-04 20:12:00,
2013-05-04 13:17:00,82.2,33.0,29.57,SW,223,24.2,24.2,17,0.00,CLR,,0.00,WeatherDisplay:10.37,2013-05-04 20:17:00,
2013-05-04 13:22:00,82.3,33.1,29.57,SW,217,32.2,32.2,17,0.00,CLR,,0.00,WeatherDisplay:10.37,2013-05-04 20:22:00,
2013-05-04 13:27:00,81.4,32.4,29.57,SSW,202,27.6,27.6,17,0.00,CLR,,0.00,WeatherDisplay:10.37,2013-05-04 20:27:00,
2013-05-04 13:32:00,81.8,32.7,29.57,SSW,209,29.9,29.9,17,0.00,CLR,,0.00,WeatherDisplay:10.37,2013-05-04 20:32:00,
2013-05-04 13:37:00,81.9,34.2,29.57,WSW,238,32.2,32.2,18,0.00,CLR,,0.00,WeatherDisplay:10.37,2013-05-04 20:37:00,
2013-05-04 13:42:00,81.6,34.0,29.57,SW,234,31.1,31.1,18,0.00,CLR,,0.00,WeatherDisplay:10.37,2013-05-04 20:42:00,
2013-05-04 13:47:00,81.4,33.8,29.57,SW,230,27.6,27.6,18,0.00,CLR,,0.00,WeatherDisplay:10.37,2013-05-04 20:47:00,
2013-05-04 13:52:00,81.4,35.2,29.57,SW,225,29.9,29.9,19,0.00,CLR,,0.00,WeatherDisplay:10.37,2013-05-04 20:52:00,
2013-05-04 13:57:00,81.3,35.1,29.57,WSW,257,28.8,28.8,19,0.00,CLR,,0.00,WeatherDisplay:10.37,2013-05-04 20:57:00,
2013-05-04 14:02:00,81.6,35.3,29.56,SW,233,27.6,27.6,19,0.00,CLR,,0.00,WeatherDisplay:10.37,2013-05-04 21:02:00,
2013-05-04 14:07:00,81.5,35.2,29.56,WSW,241,26.5,26.5,19,0.00,CLR,,0.00,WeatherDisplay:10.37,2013-05-04 21:07:00,
2013-05-04 14:12:00,81.3,36.4,29.56,WSW,240,24.2,24.2,20,0.00,CLR,,0.00,WeatherDisplay:10.37,2013-05-04 21:12:00,
2013-05-04 14:17:00,81.6,35.3,29.56,SSW,211,27.6,27.6,19,0.00,CLR,,0.00,WeatherDisplay:10.37,2013-05-04 21:17:00,
2013-05-04 14:22:00,81.8,36.8,29.56,WSW,252,29.9,29.9,20,0.00,CLR,,0.00,WeatherDisplay:10.37,2013-05-04 21:22:00,
2013-05-04 14:27:00,81.2,36.3,29.56,SW,221,28.8,28.8,20,0.00,CLR,,0.00,WeatherDisplay:10.37,2013-05-04 21:27:00,
2013-05-04 14:32:00,81.0,36.1,29.56,WSW,243,25.0,25.0,20,0.00,CLR,,0.00,WeatherDisplay:10.37,2013-05-04 21:32:00,
2013-05-04 14:37:00,81.0,37.4,29.56,SSW,213,28.0,28.0,21,0.00,CLR,,0.00,WeatherDisplay:10.37,2013-05-04 21:37:00,
2013-05-04 14:42:00,80.5,35.7,29.56,SW,225,34.5,34.5,20,0.00,CLR,,0.00,WeatherDisplay:10.37,2013-05-04 21:42:00,
2013-05-04 14:47:00,80.5,35.7,29.56,SW,231,32.2,32.2,20,0.00,CLR,,0.00,WeatherDisplay:10.37,2013-05-04 21:47:00,
2013-05-04 14:52:00,80.9,36.1,29.55,SSW,201,29.9,29.9,20,0.00,CLR,,0.00,WeatherDisplay:10.37,2013-05-04 21:52:00,
2013-05-04 14:57:00,80.7,35.9,29.56,SSW,195,29.9,29.9,20,0.00,CLR,,0.00,WeatherDisplay:10.37,2013-05-04 21:57:00,
2013-05-04 15:02:00,80.5,37.0,29.55,SW,219,29.9,29.9,21,0.00,CLR,,0.00,WeatherDisplay:10.37,2013-05-04 22:02:00,
2013-05-04 15:07:00,80.3,36.8,29.56,SW,229,33.4,33.4,21,0.00,CLR,,0.00,WeatherDisplay:10.37,2013-05-04 22:07:00,
2013-05-04 15:12:00,80.0,37.7,29.56,SW,214,27.6,27.6,22,0.00,CLR,,0.00,WeatherDisplay:10.37,2013-05-04 22:12:00,
2013-05-04 15:17:00,80.7,38.3,29.55,SW,225,24.2,24.2,22,0.00,CLR,,0.00,WeatherDisplay:10.37,2013-05-04 22:17:00,
2013-05-04 15:22:00,80.0,37.7,29.56,SW,231,31.1,31.1,22,0.00,CLR,,0.00,WeatherDisplay:10.37,2013-05-04 22:22:00,
2013-05-04 15:28:00,79.9,37.6,29.55,SSW,202,28.8,28.8,22,0.00,CLR,,0.00,WeatherDisplay:10.37,2013-05-04 22:28:00,
2013-05-04 15:33:00,79.0,38.0,29.55,SSW,202,31.1,31.1,23,0.00,CLR,,0.00,WeatherDisplay:10.37,2013-05-04 22:33:00,
2013-05-04 15:38:00,78.8,38.9,29.55,SSW,207,33.4,33.4,24,0.00,CLR,,0.00,WeatherDisplay:10.37,2013-05-04 22:38:00,
2013-05-04 15:43:00,78.6,39.8,29.55,SSW,194,32.2,32.2,25,0.00,CLR,,0.00,WeatherDisplay:10.37,2013-05-04 22:43:00,
2013-05-04 15:48:00,78.7,39.9,29.55,SSW,194,26.5,26.5,25,0.00,CLR,,0.00,WeatherDisplay:10.37,2013-05-04 22:48:00,
2013-05-04 15:53:00,78.7,39.9,29.55,SW,229,32.2,32.2,25,0.00,,,0.00,WeatherDisplay:10.37,2013-05-04 22:53:00,
2013-05-04 15:58:00,78.6,39.8,29.55,SW,221,31.1,31.1,25,0.00,CLR,,0.00,WeatherDisplay:10.37,2013-05-04 22:58:00,
2013-05-04 16:03:00,78.1,39.4,29.56,SW,225,31.1,31.1,25,0.00,CLR,,0.00,WeatherDisplay:10.37,2013-05-04 23:03:00,
2013-05-04 16:08:00,77.8,39.1,29.57,SSW,209,31.1,31.1,25,0.00,CLR,,0.00,WeatherDisplay:10.37,2013-05-04 23:08:00,
2013-05-04 16:13:00,77.7,38.0,29.56,SW,221,31.1,31.1,24,0.00,CLR,,0.00,WeatherDisplay:10.37,2013-05-04 23:13:00,
2013-05-04 16:18:00,78.5,37.6,29.56,SSW,202,26.5,26.5,23,0.00,CLR,,0.00,WeatherDisplay:10.37,2013-05-04 23:18:00,
2013-05-04 16:23:00,78.7,36.6,29.56,West,266,31.1,31.1,22,0.00,CLR,,0.00,WeatherDisplay:10.37,2013-05-04 23:23:00,
2013-05-04 16:28:00,77.8,37.0,29.56,SSW,208,31.1,31.1,23,0.00,CLR,,0.00,WeatherDisplay:10.37,2013-05-04 23:28:00,
2013-05-04 16:33:00,77.5,36.8,29.56,SSW,198,32.2,32.2,23,0.00,CLR,,0.00,WeatherDisplay:10.37,2013-05-04 23:33:00,
2013-05-04 16:38:00,77.6,36.8,29.56,WSW,244,26.5,26.5,23,0.00,CLR,,0.00,WeatherDisplay:10.37,2013-05-04 23:38:00,
2013-05-04 16:43:00,76.9,36.3,29.56,SSW,203,34.5,34.5,23,0.00,CLR,,0.00,WeatherDisplay:10.37,2013-05-04 23:43:00,
2013-05-04 16:48:00,76.8,37.3,29.57,SSW,205,34.5,34.5,24,0.00,CLR,,0.00,WeatherDisplay:10.37,2013-05-04 23:48:00,
2013-05-04 16:53:00,76.6,37.1,29.57,SSW,213,33.4,33.4,24,0.00,CLR,,0.00,WeatherDisplay:10.37,2013-05-04 23:53:00,
2013-05-04 16:58:00,76.2,36.8,29.57,SW,225,32.2,32.2,24,0.00,CLR,,0.00,WeatherDisplay:10.37,2013-05-04 23:58:00,
2013-05-04 17:03:00,76.0,37.6,29.58,SW,217,31.1,31.1,25,0.00,CLR,,0.00,WeatherDisplay:10.37,2013-05-05 00:03:00,
2013-05-04 17:08:00,76.1,37.7,29.58,SW,219,29.9,29.9,25,0.00,CLR,,0.00,WeatherDisplay:10.37,2013-05-05 00:08:00,
2013-05-04 17:13:00,75.6,37.3,29.58,SW,223,33.4,33.4,25,0.00,CLR,,0.00,WeatherDisplay:10.37,2013-05-05 00:13:00,
2013-05-04 17:18:00,75.1,37.9,29.58,SW,226,28.8,28.8,26,0.00,CLR,,0.00,WeatherDisplay:10.37,2013-05-05 00:18:00,
2013-05-04 17:23:00,75.1,38.8,29.59,SSW,211,27.6,27.6,27,0.00,CLR,,0.00,WeatherDisplay:10.37,2013-05-05 00:23:00,
2013-05-04 17:28:00,74.9,38.7,29.59,SW,234,33.4,33.4,27,0.00,CLR,,0.00,WeatherDisplay:10.37,2013-05-05 00:28:00,
2013-05-04 17:33:00,74.4,38.2,29.59,SW,219,29.9,29.9,27,0.00,CLR,,0.00,WeatherDisplay:10.37,2013-05-05 00:33:00,
2013-05-04 17:38:00,74.6,39.3,29.58,SW,228,32.2,32.2,28,0.00,CLR,,0.00,WeatherDisplay:10.37,2013-05-05 00:38:00,
2013-05-04 17:43:00,74.3,39.1,29.59,SSW,213,33.4,33.4,28,0.00,CLR,,0.00,WeatherDisplay:10.37,2013-05-05 00:43:00,
2013-05-04 17:48:00,73.6,38.5,29.58,SW,218,32.2,32.2,28,0.00,CLR,,0.00,WeatherDisplay:10.37,2013-05-05 00:48:00,
2013-05-04 17:53:00,73.6,39.4,29.58,SSW,207,24.2,24.2,29,0.00,CLR,,0.00,WeatherDisplay:10.37,2013-05-05 00:53:00,
2013-05-04 17:58:00,73.6,40.2,29.58,SSW,211,26.5,26.5,30,0.00,CLR,,0.00,WeatherDisplay:10.37,2013-05-05 00:58:00,
2013-05-04 18:03:00,72.8,40.4,29.56,SW,225,31.1,31.1,31,0.00,CLR,,0.00,WeatherDisplay:10.37,2013-05-05 01:03:00,
2013-05-04 18:08:00,72.5,39.3,29.56,SW,217,32.2,32.2,30,0.00,CLR,,0.00,WeatherDisplay:10.37,2013-05-05 01:08:00,
2013-05-04 18:13:00,72.2,39.9,29.57,SW,219,32.2,32.2,31,0.00,CLR,,0.00,WeatherDisplay:10.37,2013-05-05 01:13:00,
2013-05-04 18:18:00,71.9,38.8,29.57,SW,225,28.0,28.0,30,0.00,CLR,,0.00,WeatherDisplay:10.37,2013-05-05 01:18:00,
2013-05-04 18:24:00,71.6,38.5,29.57,SW,232,28.8,28.8,30,0.00,CLR,,0.00,WeatherDisplay:10.37,2013-05-05 01:24:00,
2013-05-04 18:29:00,71.3,39.1,29.57,SW,234,20.7,20.7,31,0.00,CLR,,0.00,WeatherDisplay:10.37,2013-05-05 01:29:00,
2013-05-04 18:34:00,70.8,37.8,29.57,WSW,242,26.5,26.5,30,0.00,CLR,,0.00,WeatherDisplay:10.37,2013-05-05 01:34:00,
2013-05-04 18:39:00,70.6,36.8,29.57,SW,217,26.5,26.5,29,0.00,CLR,,0.00,WeatherDisplay:10.37,2013-05-05 01:39:00,
2013-05-04 18:44:00,70.2,35.5,29.58,SW,227,27.6,27.6,28,0.00,CLR,,0.00,WeatherDisplay:10.37,2013-05-05 01:44:00,
2013-05-04 18:49:00,69.7,34.2,29.58,SW,221,27.0,27.0,27,0.00,CLR,,0.00,WeatherDisplay:10.37,2013-05-05 01:49:00,
2013-05-04 18:54:00,69.4,33.0,29.59,SSW,213,25.3,25.3,26,0.00,CLR,,0.00,WeatherDisplay:10.37,2013-05-05 01:54:00,
2013-05-04 18:59:00,69.1,32.7,29.59,SW,235,26.5,26.5,26,0.00,CLR,,0.00,WeatherDisplay:10.37,2013-05-05 01:59:00,
2013-05-04 19:04:00,68.8,34.3,29.58,WSW,239,26.5,26.5,28,0.00,CLR,,0.00,WeatherDisplay:10.37,2013-05-05 02:04:00,
2013-05-04 19:09:00,68.3,35.6,29.58,SW,230,29.9,29.9,30,0.00,CLR,,0.00,WeatherDisplay:10.37,2013-05-05 02:09:00,
2013-05-04 19:14:00,67.9,36.1,29.58,WSW,237,31.1,31.1,31,0.00,CLR,,0.00,WeatherDisplay:10.37,2013-05-05 02:14:00,
2013-05-04 19:19:00,67.5,37.4,29.58,WSW,257,19.6,19.6,33,0.00,CLR,,0.00,WeatherDisplay:10.37,2013-05-05 02:19:00,
2013-05-04 19:24:00,67.2,37.1,29.59,WSW,240,24.2,24.2,33,0.00,CLR,,0.00,WeatherDisplay:10.37,2013-05-05 02:24:00,
2013-05-04 19:29:00,67.0,36.9,29.59,West,269,17.3,17.3,33,0.00,CLR,,0.00,WeatherDisplay:10.37,2013-05-05 02:29:00,
2013-05-04 19:34:00,66.8,36.0,29.60,West,260,17.3,17.3,32,0.00,CLR,,0.00,WeatherDisplay:10.37,2013-05-05 02:34:00,
2013-05-04 19:39:00,66.5,34.9,29.60,West,278,15.0,15.0,31,0.00,CLR,,0.00,WeatherDisplay:10.37,2013-05-05 02:39:00,
2013-05-04 19:44:00,66.2,34.7,29.61,WSW,248,19.6,19.6,31,0.00,CLR,,0.00,WeatherDisplay:10.37,2013-05-05 02:44:00,
2013-05-04 19:49:00,65.9,35.2,29.61,WSW,246,22.0,22.0,32,0.00,CLR,,0.00,WeatherDisplay:10.37,2013-05-05 02:49:00,
2013-05-04 19:54:00,65.6,34.9,29.61,WSW,250,20.7,20.7,32,0.00,CLR,,0.00,WeatherDisplay:10.37,2013-05-05 02:54:00,
2013-05-04 19:59:00,65.5,35.6,29.61,West,259,24.2,24.2,33,0.00,CLR,,0.00,WeatherDisplay:10.37,2013-05-05 02:59:00,
2013-05-04 20:04:00,65.3,34.7,29.60,WSW,248,21.9,21.9,32,0.00,CLR,,0.00,WeatherDisplay:10.37,2013-05-05 03:04:00,
2013-05-04 20:09:00,65.1,35.3,29.60,WSW,252,19.6,19.6,33,0.00,CLR,,0.00,WeatherDisplay:10.37,2013-05-05 03:09:00,
2013-05-04 20:14:00,64.9,35.1,29.60,WSW,257,16.1,16.1,33,0.00,CLR,,0.00,WeatherDisplay:10.37,2013-05-05 03:14:00,
2013-05-04 20:19:00,64.6,35.6,29.61,WSW,246,18.4,18.4,34,0.00,CLR,,0.00,WeatherDisplay:10.37,2013-05-05 03:19:00,
2013-05-04 20:24:00,64.4,35.4,29.61,WSW,248,19.6,19.6,34,0.00,CLR,,0.00,WeatherDisplay:10.37,2013-05-05 03:24:00,
2013-05-04 20:29:00,64.3,35.3,29.61,SW,220,19.6,19.6,34,0.00,CLR,,0.00,WeatherDisplay:10.37,2013-05-05 03:29:00,
2013-05-04 20:34:00,64.3,34.6,29.61,WSW,254,19.6,19.6,33,0.00,CLR,,0.00,WeatherDisplay:10.37,2013-05-05 03:34:00,
2013-05-04 20:39:00,64.3,35.3,29.61,WSW,251,19.6,19.6,34,0.00,CLR,,0.00,WeatherDisplay:10.37,2013-05-05 03:39:00,
2013-05-04 20:44:00,64.0,36.5,29.61,WSW,254,19.6,19.6,36,0.00,CLR,,0.00,WeatherDisplay:10.37,2013-05-05 03:44:00,
2013-05-04 20:49:00,63.8,37.0,29.62,WSW,244,21.0,21.0,37,0.00,CLR,,0.00,WeatherDisplay:10.37,2013-05-05 03:49:00,
2013-05-04 20:54:00,63.6,36.8,29.62,WSW,252,16.1,16.1,37,0.00,CLR,,0.00,WeatherDisplay:10.37,2013-05-05 03:54:00,
2013-05-04 21:00:00,63.4,36.7,29.63,WSW,252,20.7,20.7,37,0.00,CLR,,0.00,WeatherDisplay:10.37,2013-05-05 04:00:00,
2013-05-04 21:01:00,63.4,36.7,29.62,WSW,248,18.4,18.4,37,0.00,CLR,,0.00,WeatherDisplay:10.37,2013-05-05 04:01:00,
2013-05-04 21:02:00,63.4,36.7,29.62,WSW,254,21.0,21.0,37,0.00,CLR,,0.00,WeatherDisplay:10.37,2013-05-05 04:02:00,
2013-05-04 21:03:00,63.3,36.6,29.62,WSW,248,20.7,20.7,37,0.00,CLR,,0.00,WeatherDisplay:10.37,2013-05-05 04:03:00,
2013-05-04 21:08:00,63.3,36.6,29.62,WSW,253,17.3,17.3,37,0.00,CLR,,0.00,WeatherDisplay:10.37,2013-05-05 04:08:00,
2013-05-04 21:13:00,63.0,37.0,29.62,SW,225,15.0,15.0,38,0.00,CLR,,0.00,WeatherDisplay:10.37,2013-05-05 04:13:00,
2013-05-04 21:18:00,62.9,36.9,29.62,SW,225,20.7,20.7,38,0.00,CLR,,0.00,WeatherDisplay:10.37,2013-05-05 04:18:00,
2013-05-04 21:23:00,63.0,36.3,29.62,West,269,26.5,26.5,37,0.00,CLR,,0.00,WeatherDisplay:10.37,2013-05-05 04:23:00,
2013-05-04 21:28:00,63.0,36.3,29.62,WSW,243,25.3,25.3,37,0.00,CLR,,0.00,WeatherDisplay:10.37,2013-05-05 04:28:00,
2013-05-04 21:33:00,63.0,36.3,29.62,WSW,248,23.0,23.0,37,0.00,CLR,,0.00,WeatherDisplay:10.37,2013-05-05 04:33:00,
2013-05-04 21:38:00,62.8,36.1,29.62,WSW,238,19.6,19.6,37,0.00,CLR,,0.00,WeatherDisplay:10.37,2013-05-05 04:38:00,
2013-05-04 21:43:00,62.7,36.0,29.63,WSW,242,24.2,24.2,37,0.00,CLR,,0.00,WeatherDisplay:10.37,2013-05-05 04:43:00,
2013-05-04 21:48:00,62.8,35.4,29.63,WSW,238,28.8,28.8,36,0.00,CLR,,0.00,WeatherDisplay:10.37,2013-05-05 04:48:00,
2013-05-04 21:53:00,62.9,34.8,29.63,WSW,241,17.3,17.3,35,0.00,CLR,,0.00,WeatherDisplay:10.37,2013-05-05 04:53:00,
2013-05-04 21:58:00,62.8,34.7,29.62,WSW,256,19.6,19.6,35,0.00,CLR,,0.00,WeatherDisplay:10.37,2013-05-05 04:58:00,
2013-05-04 22:03:00,62.7,34.6,29.62,SW,236,18.4,18.4,35,0.00,CLR,,0.00,WeatherDisplay:10.37,2013-05-05 05:03:00,
2013-05-04 22:08:00,62.6,33.8,29.63,SW,234,27.0,27.0,34,0.00,CLR,,0.00,WeatherDisplay:10.37,2013-05-05 05:08:00,
2013-05-04 22:13:00,62.6,33.8,29.63,SW,222,19.6,19.6,34,0.00,CLR,,0.00,WeatherDisplay:10.37,2013-05-05 05:13:00,
2013-05-04 22:18:00,62.5,35.2,29.63,SW,232,19.6,19.6,36,0.00,CLR,,0.00,WeatherDisplay:10.37,2013-05-05 05:18:00,
2013-05-04 22:23:00,62.0,34.7,29.63,WSW,246,20.7,20.7,36,0.00,CLR,,0.00,WeatherDisplay:10.37,2013-05-05 05:23:00,
2013-05-04 22:28:00,61.7,35.1,29.64,WSW,252,18.4,18.4,37,0.00,CLR,,0.00,WeatherDisplay:10.37,2013-05-05 05:28:00,
2013-05-04 22:33:00,61.3,36.1,29.64,WSW,240,19.6,19.6,39,0.00,CLR,,0.00,WeatherDisplay:10.37,2013-05-05 05:33:00,
2013-05-04 22:38:00,60.9,35.8,29.64,SW,230,13.8,13.8,39,0.00,CLR,,0.00,WeatherDisplay:10.37,2013-05-05 05:38:00,
2013-05-04 22:44:00,60.6,35.5,29.64,SW,224,18.4,18.4,39,0.00,CLR,,0.00,WeatherDisplay:10.37,2013-05-05 05:44:00,
2013-05-04 22:49:00,60.5,34.7,29.64,WSW,244,16.1,16.1,38,0.00,CLR,,0.00,WeatherDisplay:10.37,2013-05-05 05:49:00,
2013-05-04 22:54:00,60.6,34.2,29.64,SSW,213,18.4,18.4,37,0.00,CLR,,0.00,WeatherDisplay:10.37,2013-05-05 05:54:00,
2013-05-04 22:59:00,60.3,35.2,29.63,SW,234,18.4,18.4,39,0.00,CLR,,0.00,WeatherDisplay:10.37,2013-05-05 05:59:00,
2013-05-04 23:04:00,60.0,35.0,29.64,SW,236,16.1,16.1,39,0.00,CLR,,0.00,WeatherDisplay:10.37,2013-05-05 06:04:00,
2013-05-04 23:09:00,60.5,34.1,29.63,SW,236,15.0,15.0,37,0.00,CLR,,0.00,WeatherDisplay:10.37,2013-05-05 06:09:00,
2013-05-04 23:14:00,60.5,34.1,29.63,West,260,18.4,18.4,37,0.00,CLR,,0.00,WeatherDisplay:10.37,2013-05-05 06:14:00,
2013-05-04 23:19:00,60.4,34.0,29.63,SW,229,17.3,17.3,37,0.00,CLR,,0.00,WeatherDisplay:10.37,2013-05-05 06:19:00,
2013-05-04 23:24:00,60.0,34.3,29.63,WSW,248,16.1,16.1,38,0.00,CLR,,0.00,WeatherDisplay:10.37,2013-05-05 06:24:00,
2013-05-04 23:29:00,59.7,34.7,29.63,WSW,252,19.6,19.6,39,0.00,CLR,,0.00,WeatherDisplay:10.37,2013-05-05 06:29:00,
2013-05-04 23:34:00,59.6,34.6,29.63,SSW,205,19.6,19.6,39,0.00,CLR,,0.00,WeatherDisplay:10.37,2013-05-05 06:34:00,
2013-05-04 23:39:00,59.0,35.3,29.64,WSW,238,15.0,15.0,41,0.00,CLR,,0.00,WeatherDisplay:10.37,2013-05-05 06:39:00,
2013-05-04 23:44:00,59.0,37.1,29.64,SW,215,15.0,15.0,44,0.00,CLR,,0.00,WeatherDisplay:10.37,2013-05-05 06:44:00,
2013-05-04 23:49:00,58.3,38.1,29.64,SSW,205,16.1,16.1,47,0.00,CLR,,0.00,WeatherDisplay:10.37,2013-05-05 06:49:00,
2013-05-04 23:54:00,57.9,37.8,29.65,SSW,200,18.4,18.4,47,0.00,CLR,,0.00,WeatherDisplay:10.37,2013-05-05 06:54:00,
2013-05-04 23:59:00,57.5,39.0,29.65,SW,220,18.4,18.4,50,0.00,CLR,,0.00,WeatherDisplay:10.37,2013-05-05 06:59:00,